Time;durP1;ratioP1;P1;durP2;ratioP2;P2;SDS_P1;SDS_P2;PMS_P1;PMS_P2;Temp;Humidity;BMP_temperature;BMP_pressure;BME280_temperature;BME280_humidity;BME280_pressure;Samples;Min_cycle;Max_cycle;Signal;HPM_P1;HPM_P2
2021/07/26 00:01:26;;;;;;;5.75;1.80;;;20.50;86.10;;;;;;5016843;28;20490;-94
2021/07/26 00:03:51;;;;;;;3.67;1.48;;;20.50;86.00;;;;;;5016397;28;20076;-94
2021/07/26 00:06:17;;;;;;;5.32;1.80;;;20.40;85.70;;;;;;5016051;28;20124;-93
2021/07/26 00:08:43;;;;;;;5.55;1.85;;;20.40;85.60;;;;;;5015721;28;20057;-95
2021/07/26 00:11:11;;;;;;;5.07;2.10;;;20.40;86.00;;;;;;5016190;28;20048;-95
2021/07/26 00:13:38;;;;;;;7.10;1.90;;;20.40;86.30;;;;;;5016404;28;20502;-95
2021/07/26 00:16:05;;;;;;;5.55;1.90;;;20.40;86.20;;;;;;5015775;28;20057;-94
2021/07/26 00:18:31;;;;;;;4.85;1.80;;;20.30;86.10;;;;;;5015902;28;20069;-95
2021/07/26 00:20:58;;;;;;;4.05;1.92;;;20.30;85.80;;;;;;5016186;28;20061;-95
2021/07/26 00:23:24;;;;;;;4.47;1.90;;;20.30;85.90;;;;;;5015052;28;20168;-93
2021/07/26 00:25:51;;;;;;;4.85;1.90;;;20.30;86.30;;;;;;5016257;28;20057;-94
2021/07/26 00:28:17;;;;;;;4.60;1.90;;;20.20;86.30;;;;;;5015727;28;20053;-94
2021/07/26 00:30:43;;;;;;;6.75;2.25;;;20.20;86.60;;;;;;5015728;28;20053;-95
2021/07/26 00:33:52;;;;;;;4.30;2.08;;;20.20;86.30;;;;;;5015545;28;20433;-96
2021/07/26 00:36:18;;;;;;;5.25;2.40;;;20.20;86.00;;;;;;5016946;28;20064;-94
2021/07/26 00:38:43;;;;;;;4.97;2.40;;;20.20;86.70;;;;;;5017800;28;20046;-95
2021/07/26 00:41:09;;;;;;;5.90;2.42;;;20.10;86.70;;;;;;5016077;28;20049;-94
2021/07/26 00:43:35;;;;;;;5.38;2.42;;;20.10;86.90;;;;;;5015725;28;20045;-95
2021/07/26 00:46:00;;;;;;;6.80;2.42;;;20.20;87.00;;;;;;5013768;28;20050;-94
2021/07/26 00:48:26;;;;;;;4.72;2.42;;;20.10;87.10;;;;;;4995856;28;20313;-95
2021/07/26 00:50:52;;;;;;;6.70;2.47;;;20.10;86.90;;;;;;4995499;28;20043;-95
2021/07/26 00:53:18;;;;;;;5.43;2.20;;;20.10;86.80;;;;;;4999215;28;20050;-93
2021/07/26 00:55:44;;;;;;;7.30;2.42;;;20.10;86.90;;;;;;4995938;28;20054;-94
2021/07/26 00:58:10;;;;;;;4.25;2.20;;;20.10;87.30;;;;;;4995700;28;20181;-94
2021/07/26 01:00:35;;;;;;;4.50;2.50;;;20.00;87.10;;;;;;4995582;28;20058;-93
2021/07/26 01:03:01;;;;;;;7.32;2.40;;;20.00;87.20;;;;;;4997200;28;20057;-94
2021/07/26 01:05:27;;;;;;;5.28;2.80;;;20.00;87.20;;;;;;5014253;28;20054;-94
2021/07/26 01:07:53;;;;;;;6.93;2.95;;;20.00;87.30;;;;;;5015842;28;20104;-95
2021/07/26 01:10:18;;;;;;;7.30;3.13;;;20.00;87.40;;;;;;5001604;28;20053;-96
2021/07/26 01:12:44;;;;;;;5.13;2.85;;;19.90;86.90;;;;;;4994689;28;20061;-93
2021/07/26 01:15:10;;;;;;;5.57;3.00;;;19.90;86.80;;;;;;4995277;28;20050;-93
2021/07/26 01:18:15;;;;;;;7.70;3.30;;;19.90;87.20;;;;;;4995898;28;20050;-94
2021/07/26 01:20:41;;;;;;;6.68;3.08;;;19.90;86.20;;;;;;4995591;28;20097;-93
2021/07/26 01:23:07;;;;;;;7.82;3.25;;;19.80;87.70;;;;;;4995360;28;20050;-94
2021/07/26 01:25:37;;;;;;;5.32;3.17;;;19.80;87.30;;;;;;4995551;28;20129;-94
2021/07/26 01:28:04;;;;;;;6.93;3.20;;;19.80;87.40;;;;;;4996443;28;20182;-93
2021/07/26 01:30:31;;;;;;;6.53;2.97;;;19.80;87.50;;;;;;4996205;28;20077;-92
2021/07/26 01:33:00;;;;;;;5.82;3.15;;;19.70;88.50;;;;;;4978867;28;20054;-94
2021/07/26 01:35:26;;;;;;;6.97;3.00;;;19.70;87.60;;;;;;4996264;28;20486;-95
2021/07/26 01:37:51;;;;;;;6.10;3.08;;;19.70;87.80;;;;;;4996723;28;20058;-94
2021/07/26 01:40:17;;;;;;;6.70;3.20;;;19.70;87.90;;;;;;4997539;28;20517;-94
2021/07/26 01:42:45;;;;;;;8.23;3.17;;;19.70;87.80;;;;;;4995981;28;20081;-94
2021/07/26 01:45:12;;;;;;;5.72;3.53;;;19.60;88.00;;;;;;4996056;28;20054;-94
2021/07/26 01:47:48;;;;;;;4.85;3.15;;;19.60;87.80;;;;;;4995395;28;20042;-92
2021/07/26 01:50:19;;;;;;;5.45;3.47;;;19.60;88.00;;;;;;4998932;28;20046;-93
2021/07/26 01:52:46;;;;;;;5.90;3.13;;;19.60;88.00;;;;;;4999393;28;20165;-94
2021/07/26 01:55:15;;;;;;;6.85;3.25;;;19.50;87.90;;;;;;4998831;28;20046;-93
2021/07/26 01:57:42;;;;;;;7.13;2.85;;;19.50;88.20;;;;;;5000328;28;20116;-93
2021/07/26 02:00:08;;;;;;;6.05;3.20;;;19.50;88.10;;;;;;4999434;28;20137;-93
2021/07/26 02:02:33;;;;;;;5.25;3.05;;;19.50;88.10;;;;;;4999793;28;20050;-95
2021/07/26 02:04:59;;;;;;;6.45;3.17;;;19.40;88.20;;;;;;5000231;28;20056;-94
2021/07/26 02:07:25;;;;;;;6.43;3.10;;;19.40;88.40;;;;;;5000830;28;20058;-94
2021/07/26 02:09:51;;;;;;;5.93;3.25;;;19.40;88.60;;;;;;5000609;28;20129;-94
2021/07/26 02:12:17;;;;;;;5.22;3.35;;;19.40;88.50;;;;;;4999393;28;20808;-94
2021/07/26 02:14:42;;;;;;;6.00;3.28;;;19.40;88.70;;;;;;4999374;28;20054;-93
2021/07/26 02:17:08;;;;;;;4.75;3.00;;;19.30;88.70;;;;;;4998732;28;20081;-94
2021/07/26 02:19:34;;;;;;;4.93;3.20;;;19.30;88.40;;;;;;4998625;28;20101;-94
2021/07/26 02:22:00;;;;;;;10.50;3.10;;;19.30;88.40;;;;;;4997961;28;20073;-92
2021/07/26 02:24:26;;;;;;;6.13;2.85;;;19.20;88.50;;;;;;4998484;28;20487;-94
2021/07/26 02:26:51;;;;;;;5.78;3.65;;;19.20;88.80;;;;;;4998636;28;20046;-94
2021/07/26 02:29:19;;;;;;;5.55;3.33;;;19.20;88.80;;;;;;4998114;28;20054;-92
2021/07/26 02:31:45;;;;;;;5.97;3.35;;;19.20;89.00;;;;;;4998471;28;20057;-93
2021/07/26 02:34:11;;;;;;;5.35;3.17;;;19.20;88.80;;;;;;4999163;28;20059;-93
2021/07/26 02:36:40;;;;;;;7.93;3.40;;;19.10;88.80;;;;;;4999239;28;20046;-95
2021/07/26 02:39:06;;;;;;;7.45;3.45;;;19.10;88.90;;;;;;4999253;28;20078;-94
2021/07/26 02:41:31;;;;;;;5.25;3.30;;;19.10;88.90;;;;;;4998545;28;20503;-94
2021/07/26 02:43:57;;;;;;;6.40;3.00;;;19.10;89.10;;;;;;4998501;28;20057;-93
2021/07/26 02:46:23;;;;;;;6.20;2.90;;;19.10;88.90;;;;;;4999228;28;20043;-95
2021/07/26 02:48:49;;;;;;;4.63;2.92;;;19.00;89.20;;;;;;4999489;28;20050;-93
2021/07/26 02:51:14;;;;;;;5.05;3.03;;;19.00;89.10;;;;;;4997966;28;20042;-93
2021/07/26 02:53:43;;;;;;;5.50;3.10;;;19.00;89.10;;;;;;4997881;28;20054;-93
2021/07/26 02:56:10;;;;;;;6.45;3.03;;;18.90;88.60;;;;;;5011282;28;20084;-94
2021/07/26 02:58:36;;;;;;;5.95;3.00;;;18.90;88.50;;;;;;5017498;28;20128;-93
2021/07/26 03:01:02;;;;;;;8.95;3.20;;;18.90;88.40;;;;;;5017217;28;20045;-95
2021/07/26 03:03:27;;;;;;;5.10;2.88;;;18.80;88.90;;;;;;5018553;28;20481;-93
2021/07/26 03:05:53;;;;;;;4.40;2.60;;;18.80;89.00;;;;;;4998625;28;20065;-94
2021/07/26 03:08:19;;;;;;;4.40;2.78;;;18.80;89.10;;;;;;4997538;28;20053;-93
2021/07/26 03:10:44;;;;;;;5.45;3.10;;;18.80;89.10;;;;;;5003375;28;20053;-94
2021/07/26 03:13:10;;;;;;;4.47;2.80;;;18.70;89.30;;;;;;5010536;28;20137;-93
2021/07/26 03:15:36;;;;;;;7.05;2.95;;;18.70;89.40;;;;;;5010363;28;20061;-93
2021/07/26 03:18:02;;;;;;;4.85;3.03;;;18.70;89.30;;;;;;5010755;28;20069;-92
2021/07/26 03:20:28;;;;;;;6.57;2.95;;;18.70;89.30;;;;;;5010265;28;20050;-92
2021/07/26 03:23:00;;;;;;;5.22;2.95;;;18.60;89.10;;;;;;5006630;28;20034;-92
2021/07/26 03:25:28;;;;;;;9.05;3.17;;;18.60;88.90;;;;;;4997545;28;20536;-91
2021/07/26 03:27:54;;;;;;;5.15;2.75;;;18.60;88.50;;;;;;4996874;28;20053;-92
2021/07/26 03:30:21;;;;;;;4.82;2.90;;;18.60;88.70;;;;;;4997165;28;20061;-91
2021/07/26 03:32:47;;;;;;;8.30;3.35;;;18.60;88.90;;;;;;4996699;28;20843;-93
2021/07/26 03:35:14;;;;;;;4.68;3.15;;;18.50;89.40;;;;;;5006808;28;20589;-92
2021/07/26 03:37:42;;;;;;;4.97;3.05;;;18.50;89.20;;;;;;4996903;28;20133;-93
2021/07/26 03:40:09;;;;;;;4.60;2.95;;;18.50;89.60;;;;;;4996917;28;20495;-95
2021/07/26 03:42:40;;;;;;;5.50;2.92;;;18.50;89.90;;;;;;5003582;28;20429;-95
2021/07/26 03:45:07;;;;;;;5.50;3.03;;;18.50;89.60;;;;;;5016072;28;20050;-93
2021/07/26 03:47:33;;;;;;;7.72;3.03;;;18.50;90.00;;;;;;5012379;28;20070;-93
2021/07/26 03:49:59;;;;;;;5.30;3.00;;;18.40;90.00;;;;;;4997024;28;20050;-94
2021/07/26 03:52:25;;;;;;;4.57;3.08;;;18.50;90.10;;;;;;4997060;28;20060;-93
2021/07/26 03:54:55;;;;;;;5.70;3.22;;;18.40;90.40;;;;;;4996719;28;20074;-94
2021/07/26 03:57:20;;;;;;;4.88;3.10;;;18.40;90.20;;;;;;4997086;28;20069;-93
2021/07/26 03:59:46;;;;;;;5.38;3.42;;;18.40;90.20;;;;;;4997243;28;20050;-93
2021/07/26 04:02:12;;;;;;;6.60;3.78;;;18.40;90.30;;;;;;5002382;28;20053;-95
2021/07/26 04:04:38;;;;;;;4.90;3.40;;;18.30;90.20;;;;;;5016713;28;20057;-95
2021/07/26 04:07:09;;;;;;;6.45;3.53;;;18.30;90.20;;;;;;5016410;28;20081;-95
2021/07/26 04:09:40;;;;;;;9.38;3.17;;;18.30;90.20;;;;;;5015592;28;20136;-93
2021/07/26 04:12:09;;;;;;;5.93;3.78;;;18.30;90.10;;;;;;5015743;28;20057;-94
2021/07/26 04:14:40;;;;;;;5.57;3.70;;;18.30;90.10;;;;;;5015683;28;20425;-93
2021/07/26 04:17:06;;;;;;;6.28;3.47;;;18.30;90.20;;;;;;5015567;28;20046;-94
2021/07/26 04:19:32;;;;;;;5.53;3.97;;;18.30;90.20;;;;;;5015818;28;20065;-94
2021/07/26 04:21:58;;;;;;;5.25;3.50;;;18.20;90.00;;;;;;5015365;28;20041;-94
2021/07/26 04:24:28;;;;;;;6.97;3.92;;;18.20;90.00;;;;;;5017626;28;20045;-94
2021/07/26 04:26:53;;;;;;;5.20;3.60;;;18.20;89.30;;;;;;5016170;28;20125;-94
2021/07/26 04:29:19;;;;;;;8.70;4.25;;;18.20;89.10;;;;;;5016107;28;20057;-93
2021/07/26 04:31:47;;;;;;;6.50;4.07;;;18.20;89.30;;;;;;5015526;28;20050;-94
2021/07/26 04:34:19;;;;;;;6.07;3.70;;;18.20;90.00;;;;;;5016156;28;20050;-95
2021/07/26 04:36:44;;;;;;;6.65;3.97;;;18.20;89.70;;;;;;5016171;28;20402;-93
2021/07/26 04:39:10;;;;;;;7.93;4.10;;;18.10;88.90;;;;;;5015592;28;20058;-94
2021/07/26 04:41:36;;;;;;;5.43;3.75;;;18.20;88.70;;;;;;5009150;28;20049;-95
2021/07/26 04:44:02;;;;;;;6.40;3.90;;;18.10;89.00;;;;;;4995939;28;20086;-93
2021/07/26 04:46:31;;;;;;;6.78;4.18;;;18.10;89.20;;;;;;4996473;28;20050;-94
2021/07/26 04:49:06;;;;;;;6.53;4.03;;;18.10;89.30;;;;;;4996294;28;20129;-95
2021/07/26 04:51:32;;;;;;;6.70;3.80;;;18.10;88.70;;;;;;4996130;28;20093;-94
2021/07/26 04:53:58;;;;;;;7.57;4.13;;;18.10;88.10;;;;;;4996165;28;20180;-93
2021/07/26 04:56:24;;;;;;;6.65;4.07;;;18.10;89.20;;;;;;4996361;28;20050;-94
2021/07/26 04:58:50;;;;;;;6.72;4.00;;;18.10;89.20;;;;;;4995966;28;20050;-94
2021/07/26 05:01:15;;;;;;;6.07;4.13;;;18.10;89.10;;;;;;4996053;28;20546;-94
2021/07/26 05:03:41;;;;;;;6.72;4.50;;;18.10;89.10;;;;;;4996203;28;20046;-93
2021/07/26 05:06:07;;;;;;;7.78;4.40;;;18.10;89.20;;;;;;5004693;28;20129;-94
2021/07/26 05:08:33;;;;;;;8.30;4.43;;;18.10;89.20;;;;;;5015121;28;20073;-94
2021/07/26 05:10:58;;;;;;;6.47;4.47;;;18.10;89.80;;;;;;5015301;28;20064;-93
2021/07/26 05:13:24;;;;;;;7.93;4.20;;;18.10;90.20;;;;;;5015234;28;20100;-93
2021/07/26 05:15:50;;;;;;;6.60;4.30;;;18.10;89.80;;;;;;5015137;28;20060;-94
2021/07/26 05:18:15;;;;;;;8.20;4.30;;;18.10;89.40;;;;;;5014866;28;20425;-93
2021/07/26 05:20:41;;;;;;;6.78;4.50;;;18.10;89.70;;;;;;5006580;28;20073;-93
2021/07/26 05:23:09;;;;;;;6.68;4.25;;;18.10;90.00;;;;;;4997115;28;20097;-94
2021/07/26 05:25:34;;;;;;;7.20;4.95;;;18.10;90.00;;;;;;5012888;28;20050;-94
2021/07/26 05:28:00;;;;;;;7.35;5.43;;;18.10;89.40;;;;;;5018852;28;20095;-92
2021/07/26 05:30:26;;;;;;;5.72;4.22;;;18.20;89.10;;;;;;5017290;28;20049;-89
2021/07/26 05:32:56;;;;;;;12.10;6.30;;;18.10;88.90;;;;;;5017377;28;20049;-92
2021/07/26 05:35:21;;;;;;;6.15;4.57;;;18.20;89.00;;;;;;5017779;28;20490;-92
2021/07/26 05:37:48;;;;;;;6.22;4.70;;;18.20;89.50;;;;;;5018236;28;20056;-91
2021/07/26 05:40:14;;;;;;;8.48;4.90;;;18.20;89.70;;;;;;5016988;28;20060;-93
2021/07/26 05:42:40;;;;;;;5.55;4.30;;;18.20;89.50;;;;;;5017637;28;20053;-92
2021/07/26 05:45:07;;;;;;;6.82;4.70;;;18.20;89.70;;;;;;5017921;28;20604;-92
2021/07/26 05:47:33;;;;;;;7.88;4.20;;;18.20;89.60;;;;;;5017751;28;20066;-91
2021/07/26 05:49:59;;;;;;;11.88;10.60;;;18.20;89.40;;;;;;5017864;28;20061;-91
2021/07/26 05:52:24;;;;;;;8.07;5.97;;;18.20;90.40;;;;;;5017741;28;20057;-91
2021/07/26 05:54:50;;;;;;;8.05;5.20;;;18.20;89.80;;;;;;5017483;28;20547;-91
2021/07/26 05:57:17;;;;;;;11.85;9.80;;;18.30;89.30;;;;;;5017506;28;20052;-91
2021/07/26 05:59:44;;;;;;;11.57;8.88;;;18.30;90.20;;;;;;5012728;28;20058;-91
2021/07/26 06:02:09;;;;;;;11.18;9.63;;;18.30;90.70;;;;;;4997204;28;20046;-91
2021/07/26 06:04:35;;;;;;;10.88;9.05;;;18.30;90.90;;;;;;4998468;28;20097;-92
2021/07/26 06:07:01;;;;;;;8.82;6.78;;;18.30;90.90;;;;;;4998085;28;20487;-92
2021/07/26 06:09:27;;;;;;;9.35;7.03;;;18.40;90.70;;;;;;4999076;28;20418;-91
2021/07/26 06:11:53;;;;;;;8.43;6.07;;;18.40;90.30;;;;;;4999478;28;20546;-92
2021/07/26 06:14:20;;;;;;;6.88;5.53;;;18.50;90.10;;;;;;5001608;28;20057;-91
2021/07/26 06:16:51;;;;;;;7.28;5.40;;;18.50;89.80;;;;;;5017416;28;20056;-91
2021/07/26 06:19:18;;;;;;;13.35;9.68;;;18.50;90.00;;;;;;5017067;28;20072;-94
2021/07/26 06:21:52;;;;;;;11.48;9.00;;;18.50;90.30;;;;;;5017676;28;20046;-94
2021/07/26 06:24:19;;;;;;;10.98;8.82;;;18.50;90.40;;;;;;5006722;28;20146;-90
2021/07/26 06:26:45;;;;;;;15.43;12.88;;;18.60;90.90;;;;;;5012676;28;20050;-91
2021/07/26 06:29:13;;;;;;;10.90;9.73;;;18.60;91.50;;;;;;5015581;28;20049;-96
2021/07/26 06:31:40;;;;;;;17.23;14.73;;;18.70;91.60;;;;;;5017834;28;20050;-94
2021/07/26 06:34:06;;;;;;;8.93;6.68;;;18.80;92.60;;;;;;5016989;28;20168;-95
2021/07/26 06:36:32;;;;;;;9.52;7.97;;;18.80;91.70;;;;;;5003575;28;20082;-95
2021/07/26 06:38:58;;;;;;;8.15;6.70;;;18.90;91.10;;;;;;4998949;28;20050;-95
2021/07/26 06:41:26;;;;;;;9.90;7.38;;;19.00;90.60;;;;;;5015830;28;20145;-92
2021/07/26 06:43:53;;;;;;;12.25;10.07;;;19.00;90.70;;;;;;5015939;28;20057;-88
2021/07/26 06:46:19;;;;;;;12.27;9.40;;;19.10;91.40;;;;;;5010079;28;20042;-90
2021/07/26 06:48:45;;;;;;;8.40;6.65;;;19.20;91.70;;;;;;5016458;28;20382;-91
2021/07/26 06:51:11;;;;;;;10.27;8.85;;;19.30;91.30;;;;;;5015963;28;20057;-91
2021/07/26 06:53:37;;;;;;;11.50;9.18;;;19.40;91.50;;;;;;5016698;28;21071;-93
2021/07/26 06:56:04;;;;;;;9.80;8.25;;;19.60;91.50;;;;;;5014173;28;20148;-93
2021/07/26 06:58:30;;;;;;;12.73;10.52;;;19.60;91.30;;;;;;5006826;28;20429;-94
2021/07/26 07:00:55;;;;;;;10.05;7.03;;;19.70;91.60;;;;;;5016776;28;20046;-95
2021/07/26 07:03:21;;;;;;;13.88;10.55;;;19.80;91.20;;;;;;5016443;28;20053;-95
2021/07/26 07:05:46;;;;;;;15.02;11.02;;;19.90;91.30;;;;;;5017207;28;20545;-92
2021/07/26 07:08:12;;;;;;;14.98;11.27;;;19.90;91.60;;;;;;5015275;28;20049;-92
2021/07/26 07:10:38;;;;;;;12.55;10.82;;;20.00;91.80;;;;;;5011812;28;20638;-93
2021/07/26 07:13:03;;;;;;;10.25;8.13;;;20.10;91.90;;;;;;5015444;28;20060;-93
2021/07/26 07:15:30;;;;;;;14.07;11.00;;;20.10;91.40;;;;;;5016911;28;20042;-94
2021/07/26 07:17:55;;;;;;;12.70;10.13;;;20.20;91.60;;;;;;5017591;28;20058;-95
2021/07/26 07:20:21;;;;;;;11.63;9.23;;;20.20;91.60;;;;;;5023466;28;20141;-94
2021/07/26 07:22:48;;;;;;;12.55;9.55;;;20.30;91.40;;;;;;5016925;28;20057;-93
2021/07/26 07:25:13;;;;;;;11.85;9.68;;;20.40;91.50;;;;;;5016391;28;20489;-93
2021/07/26 07:27:39;;;;;;;12.48;9.38;;;20.40;91.50;;;;;;5017787;28;20084;-94
2021/07/26 07:30:06;;;;;;;12.75;9.48;;;20.50;91.50;;;;;;5037513;28;20045;-93
2021/07/26 07:32:35;;;;;;;12.32;8.48;;;20.60;91.50;;;;;;5037798;28;20553;-95
2021/07/26 07:35:01;;;;;;;11.15;7.53;;;20.70;91.50;;;;;;5024603;28;20108;-96
2021/07/26 07:37:34;;;;;;;13.20;9.40;;;20.80;91.20;;;;;;5017487;28;20050;-96
2021/07/26 07:40:01;;;;;;;9.18;7.50;;;20.80;91.30;;;;;;5016843;28;20104;-94
2021/07/26 07:42:27;;;;;;;13.68;7.78;;;20.90;90.90;;;;;;5018545;28;20053;-94
2021/07/26 07:44:54;;;;;;;11.57;8.48;;;21.00;90.70;;;;;;5036461;28;20049;-95
2021/07/26 07:47:20;;;;;;;10.27;8.65;;;21.00;90.80;;;;;;5036926;28;20049;-94
2021/07/26 07:49:45;;;;;;;12.70;8.93;;;21.10;91.00;;;;;;5036450;28;20057;-95
2021/07/26 07:52:11;;;;;;;10.23;7.63;;;21.10;91.00;;;;;;5036399;28;20045;-95
2021/07/26 07:54:37;;;;;;;9.07;6.70;;;21.20;90.70;;;;;;5036313;28;20076;-91
2021/07/26 07:57:03;;;;;;;9.40;7.57;;;21.30;90.40;;;;;;5036444;28;20045;-93
2021/07/26 07:59:29;;;;;;;11.50;7.18;;;21.30;90.50;;;;;;5036278;28;20107;-95
2021/07/26 08:01:55;;;;;;;8.63;6.50;;;21.40;90.40;;;;;;5036514;28;20052;-95
2021/07/26 08:04:21;;;;;;;13.30;8.48;;;21.40;90.10;;;;;;5036053;28;20049;-94
2021/07/26 08:06:46;;;;;;;10.02;7.40;;;21.40;90.30;;;;;;5036233;28;20052;-94
2021/07/26 08:09:12;;;;;;;9.38;7.25;;;21.50;90.40;;;;;;5037034;28;20051;-95
2021/07/26 08:11:38;;;;;;;10.90;7.35;;;21.50;90.30;;;;;;5037700;28;20049;-96
2021/07/26 08:14:04;;;;;;;12.50;8.05;;;21.60;90.30;;;;;;5040661;28;20050;-96
2021/07/26 08:16:31;;;;;;;12.07;8.27;;;21.60;90.50;;;;;;5044370;28;20041;-95
2021/07/26 08:18:57;;;;;;;9.88;7.30;;;21.70;90.60;;;;;;5026148;28;20193;-94
2021/07/26 08:21:23;;;;;;;10.43;7.97;;;21.80;90.30;;;;;;5010854;28;20136;-94
2021/07/26 08:23:49;;;;;;;10.65;7.32;;;21.80;90.20;;;;;;5012381;28;20076;-93
2021/07/26 08:26:14;;;;;;;10.30;6.90;;;21.90;90.30;;;;;;5016964;28;20053;-96
2021/07/26 08:28:40;;;;;;;12.35;7.15;;;22.00;90.30;;;;;;5017567;28;20038;-95
2021/07/26 08:31:06;;;;;;;11.13;7.32;;;22.10;90.20;;;;;;5015031;28;20132;-92
2021/07/26 08:33:31;;;;;;;9.05;7.03;;;22.20;90.20;;;;;;5014595;28;20042;-96
2021/07/26 08:35:57;;;;;;;9.50;7.15;;;22.30;89.90;;;;;;5023924;28;20493;-95
2021/07/26 08:38:23;;;;;;;11.45;8.27;;;22.40;89.50;;;;;;5025405;28;20076;-96
2021/07/26 08:40:51;;;;;;;9.68;7.28;;;22.50;89.40;;;;;;5024887;28;20060;-96
2021/07/26 08:43:17;;;;;;;10.10;7.68;;;22.50;88.70;;;;;;5029835;28;20062;-96
2021/07/26 08:45:44;;;;;;;10.82;7.35;;;22.60;88.80;;;;;;5021180;28;20050;-96
2021/07/26 08:48:14;;;;;;;9.68;5.85;;;22.70;88.50;;;;;;5024149;28;20483;-96
2021/07/26 08:50:41;;;;;;;12.30;6.70;;;22.80;88.10;;;;;;5004016;28;20050;-96
2021/07/26 08:53:08;;;;;;;10.43;6.65;;;22.90;87.80;;;;;;5017406;28;20049;-95
2021/07/26 08:55:34;;;;;;;11.02;5.78;;;22.90;87.70;;;;;;5021173;28;20042;-96
2021/07/26 08:58:01;;;;;;;8.18;5.65;;;23.00;87.80;;;;;;5019019;28;20050;-95
2021/07/26 09:00:27;;;;;;;10.48;5.90;;;23.10;87.40;;;;;;5021463;28;20049;-96
2021/07/26 09:02:53;;;;;;;8.50;6.20;;;23.20;87.00;;;;;;5026682;28;20076;-96
2021/07/26 09:05:19;;;;;;;9.52;5.47;;;23.20;86.80;;;;;;5026205;28;20061;-96
2021/07/26 09:07:48;;;;;;;8.77;5.85;;;23.30;86.50;;;;;;5024051;28;20049;-96
2021/07/26 09:10:24;;;;;;;9.60;5.25;;;23.40;86.30;;;;;;5029512;28;20490;-96
2021/07/26 09:12:55;;;;;;;8.73;5.28;;;23.40;86.50;;;;;;5019897;28;20141;-96
2021/07/26 09:15:30;;;;;;;7.22;5.18;;;23.50;86.20;;;;;;5031226;28;20042;-94
2021/07/26 09:17:59;;;;;;;9.43;5.32;;;23.60;86.30;;;;;;5024320;28;20050;-91
2021/07/26 09:20:30;;;;;;;7.90;4.72;;;23.60;85.40;;;;;;5028339;28;20132;-95
2021/07/26 09:23:17;;;;;;;8.30;4.85;;;23.70;84.90;;;;;;5026594;28;20057;-96
2021/07/26 09:25:48;;;;;;;8.20;4.72;;;23.80;84.00;;;;;;5025441;28;20054;-94
2021/07/26 09:28:16;;;;;;;9.18;4.68;;;23.80;84.20;;;;;;5021140;28;20094;-95
2021/07/26 09:30:49;;;;;;;6.50;4.13;;;23.90;83.20;;;;;;5023234;28;20046;-95
2021/07/26 09:33:19;;;;;;;7.65;4.55;;;23.90;82.20;;;;;;5026516;28;20143;-96
2021/07/26 09:35:45;;;;;;;6.60;4.43;;;23.90;82.20;;;;;;5026108;28;20053;-96
2021/07/26 09:38:16;;;;;;;6.47;3.78;;;23.90;81.60;;;;;;5028193;28;20077;-94
2021/07/26 09:40:45;;;;;;;8.43;4.28;;;23.90;81.30;;;;;;5028444;28;20054;-96
2021/07/26 09:43:22;;;;;;;6.93;3.83;;;24.00;81.70;;;;;;5027304;28;20041;-95
2021/07/26 09:45:53;;;;;;;7.43;4.50;;;24.20;82.10;;;;;;5029920;28;20064;-96
2021/07/26 09:48:21;;;;;;;7.68;4.28;;;24.20;82.40;;;;;;5032201;28;20491;-96
2021/07/26 09:50:51;;;;;;;7.95;3.78;;;24.30;82.80;;;;;;5030577;28;20050;-96
2021/07/26 09:53:28;;;;;;;5.47;3.83;;;24.30;82.30;;;;;;5032917;28;20046;-96
2021/07/26 09:55:58;;;;;;;7.22;3.33;;;24.50;81.90;;;;;;5031290;28;20053;-95
2021/07/26 09:58:42;;;;;;;5.13;3.13;;;24.60;80.80;;;;;;5033225;28;20050;-95
2021/07/26 10:01:10;;;;;;;7.32;3.97;;;24.60;78.50;;;;;;5026590;28;20049;-96
2021/07/26 10:03:38;;;;;;;6.68;3.65;;;24.60;78.50;;;;;;5027328;28;20056;-95
2021/07/26 10:06:05;;;;;;;5.50;3.47;;;24.60;78.30;;;;;;5023045;28;20053;-95
2021/07/26 10:08:31;;;;;;;7.00;3.67;;;24.60;79.10;;;;;;5026300;28;20049;-96
2021/07/26 10:10:57;;;;;;;8.40;3.53;;;24.60;78.60;;;;;;5023718;28;20079;-95
2021/07/26 10:13:24;;;;;;;8.73;3.63;;;24.50;78.50;;;;;;5022089;28;20106;-96
2021/07/26 10:15:50;;;;;;;9.75;4.20;;;24.50;78.50;;;;;;5020395;28;20108;-96
2021/07/26 10:18:16;;;;;;;7.70;3.95;;;24.50;78.70;;;;;;5028023;28;20054;-95
2021/07/26 10:20:56;;;;;;;7.15;3.67;;;24.60;78.80;;;;;;5020360;28;20550;-95
2021/07/26 10:23:33;;;;;;;7.53;4.13;;;24.60;79.20;;;;;;5018571;28;20046;-94
2021/07/26 10:26:03;;;;;;;9.40;4.40;;;24.70;79.90;;;;;;5027763;28;20030;-94
2021/07/26 10:28:36;;;;;;;6.97;4.30;;;24.80;80.20;;;;;;5022541;28;20037;-96
2021/07/26 10:31:01;;;;;;;;;;;24.90;79.20;;;;;;5020443;28;20054;-95
2021/07/26 10:33:29;;;;;;;8.50;4.38;;;24.90;78.10;;;;;;5020374;28;19944;-94
2021/07/26 10:35:55;;;;;;;7.97;5.28;;;24.90;79.80;;;;;;5019270;28;20046;-94
2021/07/26 10:38:43;;;;;;;8.10;5.78;;;25.00;79.90;;;;;;5020840;28;20069;-96
2021/07/26 10:41:09;;;;;;;6.97;4.70;;;25.00;78.00;;;;;;5003646;28;20509;-94
2021/07/26 10:43:58;;;;;;;8.60;4.25;;;25.00;78.40;;;;;;5017229;28;20056;-91
2021/07/26 10:46:24;;;;;;;6.28;3.60;;;25.00;76.90;;;;;;5014033;28;20045;-94
2021/07/26 10:48:53;;;;;;;8.15;3.20;;;24.90;76.80;;;;;;5017478;28;20410;-95
2021/07/26 10:51:39;;;;;;;6.88;3.60;;;24.90;74.70;;;;;;5017741;28;20593;-90
2021/07/26 10:54:07;;;;;;;7.38;3.80;;;25.00;74.60;;;;;;5014513;28;20121;-95
2021/07/26 10:57:12;;;;;;;9.23;3.97;;;25.00;75.60;;;;;;5016777;28;20116;-84
2021/07/26 11:00:25;;;;;;;6.15;3.90;;;25.10;76.40;;;;;;4995115;28;20058;-84
2021/07/26 11:02:51;;;;;;;8.20;3.90;;;25.10;74.70;;;;;;4995090;28;20046;-84
2021/07/26 11:05:27;;;;;;;7.60;3.65;;;25.10;75.00;;;;;;4995151;28;20093;-82
2021/07/26 11:08:12;;;;;;;9.55;4.00;;;25.10;74.90;;;;;;4995781;28;20069;-82
2021/07/26 11:10:49;;;;;;;7.20;4.60;;;25.10;75.70;;;;;;4994468;28;20503;-82
2021/07/26 11:13:16;;;;;;;5.53;3.70;;;25.10;75.00;;;;;;4994926;28;20117;-82
2021/07/26 11:15:52;;;;;;;8.63;4.20;;;25.10;75.20;;;;;;4995276;28;20491;-82
2021/07/26 11:18:24;;;;;;;6.03;3.85;;;25.10;75.20;;;;;;4994020;28;20391;-82
2021/07/26 11:21:12;;;;;;;7.30;3.22;;;25.10;76.50;;;;;;4994800;28;20065;-82
2021/07/26 11:23:53;;;;;;;6.45;3.17;;;25.10;75.10;;;;;;4995455;28;20062;-82
2021/07/26 11:26:26;;;;;;;5.83;2.83;;;25.20;74.60;;;;;;4995100;28;20060;-82
2021/07/26 11:29:00;;;;;;;6.40;2.80;;;25.30;74.30;;;;;;4994850;28;20309;-82
2021/07/26 11:31:33;;;;;;;6.13;2.75;;;25.30;73.40;;;;;;4994595;28;20054;-82
2021/07/26 11:34:12;;;;;;;7.60;3.60;;;25.30;73.80;;;;;;5012605;28;20512;-83
2021/07/26 11:37:04;;;;;;;6.97;3.25;;;25.30;74.50;;;;;;5014032;28;20046;-82
2021/07/26 11:39:58;;;;;;;6.43;3.70;;;25.30;74.20;;;;;;5010739;28;20054;-82
2021/07/26 11:42:40;;;;;;;5.72;2.90;;;25.30;74.10;;;;;;5013028;28;20046;-82
2021/07/26 11:45:17;;;;;;;7.18;3.10;;;25.30;74.30;;;;;;5012349;28;20046;-82
2021/07/26 11:47:48;;;;;;;6.40;3.00;;;25.40;75.40;;;;;;5013815;28;20486;-82
2021/07/26 11:50:20;;;;;;;5.07;2.88;;;25.40;75.20;;;;;;5013834;28;20086;-84
2021/07/26 11:52:53;;;;;;;6.72;3.08;;;25.40;74.40;;;;;;5013270;28;20072;-92
2021/07/26 11:55:19;;;;;;;6.97;3.00;;;25.40;75.00;;;;;;5016511;28;20050;-92
2021/07/26 11:58:03;;;;;;;6.40;3.15;;;25.30;74.80;;;;;;5021231;28;20061;-93
2021/07/26 12:00:34;;;;;;;6.10;2.70;;;25.30;75.20;;;;;;5015159;28;20413;-91
2021/07/26 12:03:00;;;;;;;4.88;2.50;;;25.30;75.90;;;;;;5022447;28;20046;-95
2021/07/26 12:05:30;;;;;;;4.47;2.13;;;25.30;74.70;;;;;;5021214;28;20049;-95
2021/07/26 12:07:57;;;;;;;5.55;2.35;;;25.30;73.60;;;;;;5019103;28;20102;-94
2021/07/26 12:10:34;;;;;;;7.55;2.40;;;25.40;73.50;;;;;;5020120;28;20133;-93
2021/07/26 12:13:07;;;;;;;5.53;2.08;;;25.40;71.60;;;;;;5014005;28;20049;-90
2021/07/26 12:15:33;;;;;;;8.52;2.20;;;25.40;70.70;;;;;;5010451;28;20056;-91
2021/07/26 12:18:16;;;;;;;5.07;2.40;;;25.40;71.50;;;;;;5014042;28;20042;-90
2021/07/26 12:20:42;;;;;;;;;;;25.50;71.00;;;;;;5015270;28;20409;-92
2021/07/26 12:23:16;;;;;;;6.57;2.72;;;25.40;72.30;;;;;;5013960;28;19925;-90
2021/07/26 12:25:50;;;;;;;4.13;1.92;;;25.50;71.30;;;;;;5013965;28;20053;-91
2021/07/26 12:28:17;;;;;;;4.03;2.10;;;25.60;70.50;;;;;;5010475;28;20400;-88
2021/07/26 12:30:49;;;;;;;6.45;2.78;;;25.60;69.60;;;;;;5013880;28;20085;-92
2021/07/26 12:33:27;;;;;;;5.30;1.83;;;25.60;70.90;;;;;;5013675;28;20054;-91
2021/07/26 12:36:10;;;;;;;8.80;1.90;;;25.70;69.10;;;;;;5014515;28;20061;-94
2021/07/26 12:38:36;;;;;;;5.22;2.10;;;25.80;68.80;;;;;;5014470;28;20577;-93
2021/07/26 12:41:05;;;;;;;4.07;2.03;;;25.80;68.90;;;;;;5013611;28;20490;-92
2021/07/26 12:43:31;;;;;;;4.88;1.95;;;25.80;69.40;;;;;;5013535;28;20073;-91
2021/07/26 12:46:01;;;;;;;4.47;2.10;;;25.80;69.00;;;;;;5014179;28;20057;-96
2021/07/26 12:48:29;;;;;;;5.53;2.08;;;25.80;68.00;;;;;;5015280;28;20038;-92
2021/07/26 12:50:55;;;;;;;4.18;2.00;;;25.80;69.10;;;;;;5013306;28;20204;-93
2021/07/26 12:53:22;;;;;;;4.32;1.88;;;25.90;70.10;;;;;;5014030;28;20042;-90